createdAt,value
2018-07-16T00:00:24.861Z,6.40
2018-07-16T00:02:52.982Z,6.50
2018-07-16T00:05:21.118Z,6.37
2018-07-16T00:07:49.252Z,6.20
2018-07-16T00:10:17.413Z,6.10
2018-07-16T00:12:45.535Z,5.83
2018-07-16T00:15:13.658Z,5.27
2018-07-16T00:17:41.800Z,5.90
2018-07-16T00:20:09.896Z,5.27
2018-07-16T00:22:38.015Z,5.83
2018-07-16T00:25:06.275Z,5.73
2018-07-16T00:27:34.393Z,5.80
2018-07-16T00:30:02.516Z,6.20
2018-07-16T00:32:30.630Z,5.37
2018-07-16T00:34:58.763Z,5.40
2018-07-16T00:37:26.898Z,5.60
2018-07-16T00:39:54.993Z,5.27
2018-07-16T00:42:23.127Z,5.17
2018-07-16T00:44:51.263Z,4.87
2018-07-16T00:47:19.374Z,5.20
2018-07-16T00:49:47.489Z,5.67
2018-07-16T00:52:15.618Z,5.37
2018-07-16T00:54:43.746Z,5.00
2018-07-16T00:57:11.869Z,5.37
2018-07-16T00:59:39.785Z,5.53
2018-07-16T01:02:07.897Z,5.93
2018-07-16T01:04:35.998Z,5.50
2018-07-16T01:07:04.150Z,5.20
2018-07-16T01:09:32.276Z,5.50
2018-07-16T01:12:00.497Z,5.97
2018-07-16T01:14:28.619Z,5.60
2018-07-16T01:16:56.730Z,5.53
2018-07-16T01:19:24.862Z,5.90
2018-07-16T01:21:52.973Z,6.20
2018-07-16T01:24:21.079Z,5.60
2018-07-16T01:26:49.237Z,6.83
2018-07-16T01:29:17.365Z,6.33
2018-07-16T01:31:45.468Z,6.37
2018-07-16T01:34:13.605Z,6.63
2018-07-16T01:36:41.734Z,7.20
2018-07-16T01:39:09.859Z,6.93
2018-07-16T01:41:38.024Z,7.03
2018-07-16T01:44:06.143Z,6.00
2018-07-16T01:46:34.264Z,7.00
2018-07-16T01:49:02.418Z,6.43
2018-07-16T01:51:30.540Z,6.10
2018-07-16T01:53:58.648Z,6.00
2018-07-16T01:56:26.785Z,7.23
2018-07-16T01:58:54.990Z,6.67
2018-07-16T02:01:23.132Z,7.00
2018-07-16T02:03:51.253Z,6.70
2018-07-16T02:06:19.389Z,6.87
2018-07-16T02:08:47.501Z,6.17
2018-07-16T02:11:15.603Z,6.87
2018-07-16T02:13:43.711Z,6.23
2018-07-16T02:16:11.827Z,6.23
2018-07-16T02:18:40.821Z,5.87
2018-07-16T02:21:08.950Z,6.13
2018-07-16T02:23:37.031Z,6.10
2018-07-16T02:26:05.131Z,6.40
2018-07-16T02:28:33.251Z,6.27
2018-07-16T02:31:01.367Z,6.07
2018-07-16T02:33:29.467Z,5.97
2018-07-16T02:35:57.587Z,5.90
2018-07-16T02:38:25.701Z,6.70
2018-07-16T02:40:53.811Z,6.60
2018-07-16T02:43:21.944Z,7.30
2018-07-16T02:45:50.059Z,7.20
2018-07-16T02:48:18.194Z,7.20
2018-07-16T02:50:46.314Z,7.33
2018-07-16T02:53:14.425Z,7.97
2018-07-16T02:55:42.575Z,7.20
2018-07-16T02:58:10.688Z,7.53
2018-07-16T03:00:38.831Z,7.87
2018-07-16T03:03:06.930Z,7.90
2018-07-16T03:05:35.049Z,7.70
2018-07-16T03:08:03.178Z,7.00
2018-07-16T03:10:31.307Z,6.70
2018-07-16T03:12:59.462Z,6.87
2018-07-16T03:15:27.586Z,6.60
2018-07-16T03:17:55.729Z,6.80
2018-07-16T03:20:23.837Z,7.23
2018-07-16T03:22:51.957Z,7.60
2018-07-16T03:25:20.077Z,7.07
2018-07-16T03:27:48.235Z,7.57
2018-07-16T03:30:16.334Z,7.30
2018-07-16T03:32:44.471Z,7.40
2018-07-16T03:35:12.647Z,7.57
2018-07-16T03:37:40.764Z,7.80
2018-07-16T03:40:08.889Z,7.07
2018-07-16T03:42:37.019Z,7.50
2018-07-16T03:45:05.131Z,7.60
2018-07-16T03:47:33.271Z,7.43
2018-07-16T03:50:01.402Z,7.97
2018-07-16T03:52:29.554Z,7.67
2018-07-16T03:54:57.654Z,7.70
2018-07-16T03:57:25.772Z,8.20
2018-07-16T03:59:53.919Z,7.07
2018-07-16T04:02:22.030Z,7.80
2018-07-16T04:04:50.148Z,7.40
2018-07-16T04:07:18.249Z,7.33
2018-07-16T04:09:46.382Z,7.10
2018-07-16T04:12:14.500Z,7.00
2018-07-16T04:14:42.625Z,8.03
2018-07-16T04:17:10.758Z,8.43
2018-07-16T04:19:38.861Z,7.80
2018-07-16T04:22:07.166Z,7.80
2018-07-16T04:24:35.267Z,7.47
2018-07-16T04:27:03.388Z,8.23
2018-07-16T04:29:31.509Z,7.43
2018-07-16T04:31:59.613Z,7.67
2018-07-16T04:34:27.734Z,8.13
2018-07-16T04:36:55.849Z,8.17
2018-07-16T04:39:23.979Z,8.20
2018-07-16T04:41:52.098Z,9.13
2018-07-16T04:44:20.194Z,8.60
2018-07-16T05:30:28.614Z,8.63
2018-07-16T05:32:56.746Z,8.47
2018-07-16T05:35:24.871Z,8.27
2018-07-16T05:37:53.035Z,7.93
2018-07-16T05:40:21.207Z,8.53
2018-07-16T05:42:49.365Z,8.07
2018-07-16T05:45:17.506Z,7.90
2018-07-16T05:47:45.663Z,8.70
2018-07-16T05:50:13.830Z,9.40
2018-07-16T05:52:42.088Z,8.67
2018-07-16T05:55:10.221Z,7.70
2018-07-16T05:57:38.359Z,9.20
2018-07-16T06:00:06.575Z,7.83
2018-07-16T06:02:34.503Z,8.13
2018-07-16T06:05:02.899Z,8.20
2018-07-16T06:07:31.107Z,8.30
2018-07-16T06:09:59.088Z,9.77
2018-07-16T06:12:27.241Z,9.43
2018-07-16T06:14:55.382Z,8.13
2018-07-16T06:17:23.555Z,8.73
2018-07-16T06:19:51.762Z,8.57
2018-07-16T06:22:19.893Z,7.40
2018-07-16T06:24:48.026Z,7.80
2018-07-16T06:27:16.461Z,6.87
2018-07-16T06:29:44.670Z,7.33
2018-07-16T06:32:12.902Z,7.20
2018-07-16T06:34:41.030Z,7.27
2018-07-16T06:37:09.184Z,7.00
2018-07-16T06:39:37.826Z,7.30
2018-07-16T06:42:05.922Z,7.50
2018-07-16T06:44:34.290Z,6.90
2018-07-16T06:47:02.398Z,6.27
2018-07-16T06:49:30.519Z,6.47
2018-07-16T06:51:58.651Z,5.57
2018-07-16T06:54:26.783Z,5.73
2018-07-16T06:56:54.895Z,5.63
2018-07-16T06:59:23.077Z,5.40
2018-07-16T07:01:51.197Z,4.53
2018-07-16T07:04:19.356Z,4.63
2018-07-16T07:06:47.479Z,3.97
2018-07-16T07:09:15.611Z,5.47
2018-07-16T07:11:43.738Z,5.30
2018-07-16T07:14:11.863Z,5.63
2018-07-16T07:16:39.985Z,6.30
2018-07-16T07:19:08.198Z,6.37
2018-07-16T07:21:36.283Z,5.20
2018-07-16T07:24:04.424Z,5.70
2018-07-16T07:26:32.526Z,6.20
2018-07-16T07:29:00.653Z,5.28
2018-07-16T07:31:28.787Z,6.05
2018-07-16T07:33:56.930Z,5.30
2018-07-16T07:36:25.038Z,4.78
2018-07-16T07:38:53.143Z,5.47
2018-07-16T07:41:21.245Z,5.30
2018-07-16T07:43:49.375Z,5.25
2018-07-16T07:46:17.467Z,5.47
2018-07-16T07:48:45.606Z,4.92
2018-07-16T07:51:13.722Z,4.65
2018-07-16T07:53:41.835Z,4.42
2018-07-16T07:56:09.958Z,4.87
2018-07-16T07:58:38.083Z,5.03
2018-07-16T08:01:07.098Z,4.45
2018-07-16T08:03:35.232Z,5.62
2018-07-16T08:06:05.370Z,5.20
2018-07-16T08:08:33.946Z,4.92
2018-07-16T08:11:03.546Z,5.37
2018-07-16T08:13:32.111Z,5.03
2018-07-16T08:16:00.264Z,4.90
2018-07-16T08:18:28.476Z,5.30
2018-07-16T08:20:56.711Z,5.10
2018-07-16T08:23:24.910Z,4.97
2018-07-16T08:25:53.036Z,5.08
2018-07-16T08:28:21.288Z,5.22
2018-07-16T08:30:49.743Z,5.25
2018-07-16T08:33:17.845Z,4.92
2018-07-16T08:35:45.985Z,5.45
2018-07-16T08:38:14.123Z,4.85
2018-07-16T08:40:42.218Z,4.33
2018-07-16T08:43:10.390Z,4.55
2018-07-16T08:45:38.511Z,4.12
2018-07-16T08:48:06.628Z,4.42
2018-07-16T08:50:34.750Z,3.98
2018-07-16T08:53:02.865Z,4.00
2018-07-16T08:55:30.991Z,4.35
2018-07-16T08:57:59.108Z,4.17
2018-07-16T09:00:27.223Z,4.28
2018-07-16T09:02:55.345Z,4.33
2018-07-16T09:05:23.474Z,3.90
2018-07-16T09:07:51.617Z,4.12
2018-07-16T09:10:19.738Z,3.77
2018-07-16T09:12:47.866Z,4.03
2018-07-16T09:15:15.945Z,3.33
2018-07-16T09:17:44.084Z,3.50
2018-07-16T09:20:12.212Z,3.72
2018-07-16T09:22:40.326Z,3.58
2018-07-16T09:25:08.527Z,3.05
2018-07-16T09:27:36.646Z,3.20
2018-07-16T09:30:04.976Z,3.37
2018-07-16T09:32:33.145Z,3.37
2018-07-16T09:35:01.202Z,3.85
2018-07-16T09:37:29.330Z,3.50
2018-07-16T09:39:57.518Z,3.60
2018-07-16T09:42:25.609Z,3.67
2018-07-16T09:44:53.745Z,3.50
2018-07-16T09:47:21.862Z,3.30
2018-07-16T09:49:50.019Z,3.40
2018-07-16T09:52:18.126Z,3.30
2018-07-16T09:54:46.241Z,3.42
2018-07-16T09:59:49.066Z,3.10
2018-07-16T10:02:17.846Z,2.65
2018-07-16T10:04:46.754Z,2.90
2018-07-16T10:07:14.658Z,3.27
2018-07-16T10:09:42.782Z,3.30
2018-07-16T10:12:10.909Z,2.70
2018-07-16T10:14:39.067Z,3.00
2018-07-16T10:17:08.027Z,2.85
2018-07-16T10:19:36.144Z,2.67
2018-07-16T10:22:04.270Z,2.30
2018-07-16T10:24:32.417Z,2.40
2018-07-16T10:27:00.568Z,2.70
2018-07-16T10:29:28.878Z,2.67
2018-07-16T10:31:57.070Z,2.55
2018-07-16T10:34:25.266Z,2.40
2018-07-16T10:36:53.343Z,2.77
2018-07-16T10:39:21.521Z,2.70
2018-07-16T10:41:49.623Z,2.47
2018-07-16T10:44:17.737Z,2.72
2018-07-16T10:46:45.885Z,2.70
2018-07-16T10:49:14.046Z,2.60
2018-07-16T10:51:42.178Z,3.05
2018-07-16T10:54:10.294Z,3.70
2018-07-16T10:56:38.433Z,3.80
2018-07-16T10:59:06.545Z,3.80
2018-07-16T11:01:34.650Z,3.83
2018-07-16T11:04:02.762Z,3.37
2018-07-16T11:06:30.894Z,3.05
2018-07-16T11:08:59.042Z,3.20
2018-07-16T11:11:27.170Z,3.15
2018-07-16T11:13:55.087Z,3.40
2018-07-16T11:16:23.218Z,3.83
2018-07-16T11:18:51.319Z,3.80
2018-07-16T11:21:19.454Z,3.65
2018-07-16T11:23:47.569Z,3.55
2018-07-16T11:26:15.762Z,3.80
2018-07-16T11:28:43.895Z,3.45
2018-07-16T11:31:12.048Z,3.42
2018-07-16T11:33:40.275Z,4.12
2018-07-16T11:36:08.210Z,3.77
2018-07-16T11:38:36.314Z,3.80
2018-07-16T11:41:04.762Z,3.90
2018-07-16T11:43:32.906Z,3.60
2018-07-16T11:46:01.107Z,3.85
2018-07-16T11:48:29.222Z,3.30
2018-07-16T11:50:57.407Z,3.25
2018-07-16T11:53:25.523Z,3.77
2018-07-16T11:55:53.655Z,3.45
2018-07-16T11:58:21.836Z,3.17
2018-07-16T12:00:49.955Z,3.55
2018-07-16T12:03:18.091Z,3.50
2018-07-16T12:05:46.260Z,3.55
2018-07-16T12:08:14.400Z,4.30
2018-07-16T12:10:42.509Z,3.90
2018-07-16T12:13:10.685Z,3.70
2018-07-16T12:15:38.941Z,3.45
2018-07-16T12:18:07.053Z,3.42
2018-07-16T12:20:35.219Z,3.30
2018-07-16T12:23:03.322Z,3.47
2018-07-16T12:25:31.458Z,3.22
2018-07-16T12:27:59.621Z,3.37
2018-07-16T12:30:27.773Z,2.80
2018-07-16T12:32:56.298Z,3.40
2018-07-16T12:35:24.335Z,3.27
2018-07-16T12:37:52.467Z,3.30
2018-07-16T12:40:20.597Z,3.52
2018-07-16T12:42:48.806Z,3.20
2018-07-16T12:45:17.784Z,2.85
2018-07-16T12:47:45.874Z,3.25
2018-07-16T12:50:14.034Z,3.20
2018-07-16T12:52:42.159Z,3.40
2018-07-16T12:55:10.294Z,3.10
2018-07-16T12:57:38.422Z,2.98
2018-07-16T13:00:06.767Z,3.40
2018-07-16T13:02:34.926Z,2.60
2018-07-16T13:05:03.072Z,2.80
2018-07-16T13:07:31.229Z,3.30
2018-07-16T13:09:59.355Z,3.52
2018-07-16T13:12:27.231Z,3.35
2018-07-16T13:14:55.341Z,3.05
2018-07-16T13:17:23.447Z,3.33
2018-07-16T13:19:51.654Z,3.50
2018-07-16T13:22:19.753Z,3.20
2018-07-16T13:24:47.897Z,3.00
2018-07-16T13:27:16.018Z,3.10
2018-07-16T13:29:44.176Z,3.55
2018-07-16T13:32:12.389Z,3.05
2018-07-16T13:34:40.522Z,3.12
2018-07-16T13:37:08.682Z,3.33
2018-07-16T13:39:36.554Z,2.90
2018-07-16T13:42:04.681Z,3.40
2018-07-16T13:44:32.801Z,3.35
2018-07-16T13:47:00.906Z,3.00
2018-07-16T13:49:29.074Z,3.60
2018-07-16T13:51:57.173Z,3.27
2018-07-16T13:54:25.315Z,3.45
2018-07-16T13:56:53.493Z,2.83
2018-07-16T13:59:21.595Z,3.22
2018-07-16T14:01:49.781Z,3.20
2018-07-16T14:04:17.897Z,3.20
2018-07-16T14:06:47.034Z,3.15
2018-07-16T14:09:15.186Z,3.12
2018-07-16T14:11:43.299Z,3.30
2018-07-16T14:14:17.465Z,2.90
2018-07-16T14:16:45.669Z,3.33
2018-07-16T14:19:13.807Z,2.95
2018-07-16T14:21:41.994Z,2.83
2018-07-16T14:24:10.114Z,2.90
2018-07-16T14:26:38.235Z,3.02
2018-07-16T14:29:06.466Z,2.92
2018-07-16T14:31:34.620Z,2.77
2018-07-16T14:34:02.734Z,3.00
2018-07-16T14:36:30.862Z,3.17
2018-07-16T14:38:58.987Z,3.02
2018-07-16T14:41:27.144Z,3.20
2018-07-16T14:43:55.295Z,2.77
2018-07-16T14:46:23.470Z,3.20
2018-07-16T14:48:51.619Z,3.22
2018-07-16T14:51:19.763Z,2.62
2018-07-16T14:53:47.925Z,2.58
2018-07-16T14:56:16.018Z,2.95
2018-07-16T14:58:44.135Z,2.65
2018-07-16T15:01:12.285Z,3.10
2018-07-16T15:03:40.405Z,3.00
2018-07-16T15:06:08.626Z,3.17
2018-07-16T15:08:36.795Z,3.20
2018-07-16T15:11:04.890Z,2.90
2018-07-16T15:13:33.061Z,3.08
2018-07-16T15:16:01.307Z,3.05
2018-07-16T15:18:29.415Z,2.70
2018-07-16T15:20:57.738Z,2.87
2018-07-16T15:23:25.659Z,2.80
2018-07-16T15:25:53.961Z,2.80
2018-07-16T15:28:22.225Z,2.40
2018-07-16T15:30:50.362Z,2.70
2018-07-16T15:33:18.506Z,2.85
2018-07-16T15:35:46.724Z,2.65
2018-07-16T15:38:14.738Z,2.70
2018-07-16T15:40:42.920Z,2.62
2018-07-16T15:43:10.825Z,2.47
2018-07-16T15:45:38.967Z,2.62
2018-07-16T15:48:07.159Z,2.70
2018-07-16T15:50:35.203Z,2.30
2018-07-16T15:53:03.353Z,2.70
2018-07-16T15:55:31.511Z,2.85
2018-07-16T15:57:59.627Z,2.80
2018-07-16T16:00:27.722Z,2.95
2018-07-16T16:02:55.986Z,2.60
2018-07-16T16:05:24.042Z,2.60
2018-07-16T16:07:52.178Z,3.10
2018-07-16T16:10:20.331Z,2.85
2018-07-16T16:12:48.462Z,2.92
2018-07-16T16:15:16.610Z,2.65
2018-07-16T16:17:44.689Z,2.70
2018-07-16T16:20:12.891Z,3.10
2018-07-16T16:22:41.127Z,3.42
2018-07-16T16:25:09.090Z,3.05
2018-07-16T16:27:37.325Z,2.95
2018-07-16T16:30:06.160Z,2.92
2018-07-16T16:32:34.416Z,2.85
2018-07-16T16:35:02.530Z,2.80
2018-07-16T16:37:30.703Z,2.92
2018-07-16T16:39:59.741Z,2.70
2018-07-16T16:42:29.315Z,2.67
2018-07-16T16:44:58.021Z,2.92
2018-07-16T16:47:26.571Z,3.10
2018-07-16T16:49:54.768Z,3.02
2018-07-16T16:52:22.951Z,3.27
2018-07-16T16:54:51.088Z,2.80
2018-07-16T16:57:19.226Z,3.22
2018-07-16T16:59:47.375Z,3.15
2018-07-16T17:02:15.536Z,3.27
2018-07-16T17:04:43.657Z,2.80
2018-07-16T17:07:11.775Z,2.90
2018-07-16T17:09:39.910Z,2.98
2018-07-16T17:12:08.104Z,3.00
2018-07-16T17:14:36.309Z,3.37
2018-07-16T17:17:04.589Z,3.27
2018-07-16T17:19:32.842Z,3.20
2018-07-16T17:22:01.025Z,3.02
2018-07-16T17:24:29.128Z,2.83
2018-07-16T17:26:57.301Z,3.20
2018-07-16T17:29:25.446Z,2.72
2018-07-16T17:31:53.652Z,3.30
2018-07-16T17:34:21.743Z,3.40
2018-07-16T17:36:49.894Z,3.17
2018-07-16T17:39:18.003Z,2.90
2018-07-16T17:41:46.117Z,3.10
2018-07-16T17:44:14.273Z,3.25
2018-07-16T17:46:42.385Z,2.87
2018-07-16T17:49:10.515Z,3.40
2018-07-16T17:51:38.645Z,3.40
2018-07-16T17:54:09.662Z,2.87
2018-07-16T17:56:37.832Z,3.20
2018-07-16T17:59:07.200Z,3.17
2018-07-16T18:01:35.368Z,2.80
2018-07-16T18:04:03.476Z,3.05
2018-07-16T18:06:31.597Z,3.00
2018-07-16T18:08:59.725Z,3.00
2018-07-16T18:11:27.838Z,3.25
2018-07-16T18:13:55.740Z,3.10
2018-07-16T18:16:23.859Z,3.00
2018-07-16T18:18:51.967Z,3.00
2018-07-16T18:21:20.130Z,2.93
2018-07-16T18:23:48.073Z,3.07
2018-07-16T18:26:16.247Z,3.10
2018-07-16T18:28:44.391Z,3.20
2018-07-16T18:31:12.588Z,3.50
2018-07-16T18:33:40.793Z,3.10
2018-07-16T18:36:08.940Z,3.17
2018-07-16T18:38:37.173Z,3.30
2018-07-16T18:41:05.289Z,3.00
2018-07-16T18:43:33.429Z,3.60
2018-07-16T18:46:03.272Z,3.20
2018-07-16T18:48:31.751Z,2.83
2018-07-16T18:50:59.929Z,3.50
2018-07-16T18:53:28.156Z,3.40
2018-07-16T18:55:56.743Z,3.20
2018-07-16T18:58:24.954Z,3.67
2018-07-16T19:00:53.146Z,3.80
2018-07-16T19:03:21.275Z,3.83
2018-07-16T19:05:49.398Z,4.57
2018-07-16T19:08:17.570Z,4.23
2018-07-16T19:10:45.790Z,3.97
2018-07-16T19:13:13.964Z,3.57
2018-07-16T19:15:42.139Z,3.93
2018-07-16T19:18:10.238Z,3.80
2018-07-16T19:20:38.507Z,4.00
2018-07-16T19:23:06.715Z,3.87
2018-07-16T19:25:34.963Z,3.70
2018-07-16T19:28:03.071Z,3.73
2018-07-16T19:30:31.331Z,4.10
2018-07-16T19:32:59.428Z,3.97
2018-07-16T19:35:27.752Z,3.70
2018-07-16T19:37:55.954Z,3.97
2018-07-16T19:40:24.151Z,3.70
2018-07-16T19:42:52.259Z,3.77
2018-07-16T19:45:20.387Z,3.80
2018-07-16T19:47:48.585Z,3.37
2018-07-16T19:50:16.702Z,3.70
2018-07-16T19:52:44.897Z,3.97
2018-07-16T19:55:13.201Z,3.60
2018-07-16T19:57:41.328Z,3.63
2018-07-16T20:00:09.431Z,4.00
2018-07-16T20:02:37.755Z,3.90
2018-07-16T20:05:06.027Z,4.17
2018-07-16T20:07:33.991Z,3.63
2018-07-16T20:10:02.169Z,3.97
2018-07-16T20:12:32.182Z,4.13
2018-07-16T20:15:01.408Z,4.43
2018-07-16T20:17:29.725Z,4.47
2018-07-16T20:19:58.339Z,4.30
2018-07-16T20:22:26.749Z,4.37
2018-07-16T20:24:54.945Z,4.17
2018-07-16T20:27:23.038Z,4.63
2018-07-16T20:29:51.578Z,4.30
2018-07-16T20:32:19.768Z,4.23
2018-07-16T20:34:47.934Z,4.13
2018-07-16T20:37:16.054Z,4.03
2018-07-16T20:39:44.488Z,4.40
2018-07-16T20:42:12.610Z,4.10
2018-07-16T20:44:40.753Z,4.13
2018-07-16T20:47:08.873Z,4.30
2018-07-16T20:49:36.997Z,4.90
2018-07-16T20:52:05.175Z,5.03
2018-07-16T20:54:33.296Z,4.53
2018-07-16T20:57:01.479Z,4.80
2018-07-16T20:59:29.639Z,4.17
2018-07-16T21:01:57.798Z,5.10
2018-07-16T21:04:25.980Z,4.97
2018-07-16T21:06:54.126Z,5.27
2018-07-16T21:09:22.291Z,5.10
2018-07-16T21:11:50.414Z,5.03
2018-07-16T21:14:18.537Z,4.63
2018-07-16T21:16:46.649Z,5.00
2018-07-16T21:19:14.927Z,4.60
2018-07-16T21:21:43.111Z,5.00
2018-07-16T21:24:11.231Z,5.30
2018-07-16T21:26:39.380Z,4.40
2018-07-16T21:29:08.443Z,4.77
2018-07-16T21:31:37.234Z,5.43
2018-07-16T21:34:05.398Z,5.13
2018-07-16T21:36:34.520Z,5.10
2018-07-16T21:39:02.755Z,5.00
2018-07-16T21:41:30.930Z,5.17
2018-07-16T21:43:59.145Z,5.03
2018-07-16T21:46:27.436Z,5.30
2018-07-16T21:48:55.754Z,4.97
2018-07-16T21:51:23.928Z,5.23
2018-07-16T21:53:52.091Z,5.57
2018-07-16T21:56:20.238Z,4.90
2018-07-16T21:58:48.463Z,5.47
2018-07-16T22:01:16.596Z,5.13
2018-07-16T22:03:44.919Z,5.30
2018-07-16T22:06:13.064Z,5.60
2018-07-16T22:08:53.549Z,5.93
2018-07-16T22:11:21.738Z,5.72
2018-07-16T22:13:49.848Z,5.20
2018-07-16T22:16:18.077Z,5.70
2018-07-16T22:18:46.396Z,6.00
2018-07-16T22:21:14.556Z,5.97
2018-07-16T22:23:42.714Z,5.63
2018-07-16T22:26:10.865Z,5.30
2018-07-16T22:28:39.063Z,6.00
2018-07-16T22:31:07.224Z,5.40
2018-07-16T22:33:35.386Z,5.60
2018-07-16T22:36:03.542Z,5.87
2018-07-16T22:38:31.717Z,5.67
2018-07-16T22:40:59.881Z,6.20
2018-07-16T22:46:59.554Z,6.13
2018-07-16T22:49:27.705Z,5.83
2018-07-16T22:51:55.877Z,5.33
2018-07-16T22:54:24.053Z,5.80
2018-07-16T22:56:52.310Z,5.93
2018-07-16T22:59:20.786Z,6.00
2018-07-16T23:01:48.997Z,6.00
2018-07-16T23:04:17.140Z,6.03
2018-07-16T23:06:45.558Z,5.90
2018-07-16T23:09:13.738Z,6.20
2018-07-16T23:11:41.843Z,6.10
2018-07-16T23:14:10.029Z,5.57
2018-07-16T23:16:38.177Z,5.67
2018-07-16T23:19:06.417Z,6.20
2018-07-16T23:21:34.583Z,6.20
2018-07-16T23:24:03.069Z,6.13
2018-07-16T23:26:31.237Z,6.60
2018-07-16T23:28:59.472Z,6.37
2018-07-16T23:31:27.602Z,6.70
2018-07-16T23:33:55.792Z,6.10
2018-07-16T23:36:23.965Z,6.63
2018-07-16T23:38:51.906Z,7.30
2018-07-16T23:41:20.081Z,7.17
2018-07-16T23:43:48.264Z,6.87
2018-07-16T23:46:16.421Z,6.63
2018-07-16T23:48:44.617Z,6.93
2018-07-16T23:51:12.796Z,6.70
2018-07-16T23:53:40.979Z,6.97
2018-07-16T23:56:09.167Z,6.10
2018-07-16T23:58:37.333Z,6.83
